sensor_id;sensor_type;location;lat;lon;timestamp;pressure;altitude;pressure_sealevel;temperature
63009;BMP280;49099;28.428;-16.488;2023-02-08T00:00:47;98879.25;;;17.19
63009;BMP280;49099;28.428;-16.488;2023-02-08T00:03:14;98880.28;;;17.21
63009;BMP280;49099;28.428;-16.488;2023-02-08T00:05:41;98881.88;;;17.19
63009;BMP280;49099;28.428;-16.488;2023-02-08T00:08:09;98874.41;;;17.17
63009;BMP280;49099;28.428;-16.488;2023-02-08T00:10:36;98869.81;;;17.18
63009;BMP280;49099;28.428;-16.488;2023-02-08T00:13:03;98874.41;;;17.17
63009;BMP280;49099;28.428;-16.488;2023-02-08T00:15:30;98867.59;;;17.16
63009;BMP280;49099;28.428;-16.488;2023-02-08T00:17:57;98869.81;;;17.18
63009;BMP280;49099;28.428;-16.488;2023-02-08T00:20:25;98870.56;;;17.18
63009;BMP280;49099;28.428;-16.488;2023-02-08T00:22:52;98869.81;;;17.18
63009;BMP280;49099;28.428;-16.488;2023-02-08T00:25:19;98864.50;;;17.18
63009;BMP280;49099;28.428;-16.488;2023-02-08T00:27:46;98860.81;;;17.15
63009;BMP280;49099;28.428;-16.488;2023-02-08T00:30:13;98867.28;;;17.14
63009;BMP280;49099;28.428;-16.488;2023-02-08T00:32:41;98868.78;;;17.15
63009;BMP280;49099;28.428;-16.488;2023-02-08T00:35:08;98863.78;;;17.17
63009;BMP280;49099;28.428;-16.488;2023-02-08T00:37:35;98859.63;;;17.16
63009;BMP280;49099;28.428;-16.488;2023-02-08T00:40:03;98860.81;;;17.15
63009;BMP280;49099;28.428;-16.488;2023-02-08T00:42:31;98854.03;;;17.14
63009;BMP280;49099;28.428;-16.488;2023-02-08T00:44:58;98846.06;;;17.14
63009;BMP280;49099;28.428;-16.488;2023-02-08T00:47:26;98857.13;;;17.13
63009;BMP280;49099;28.428;-16.488;2023-02-08T00:49:53;98867.03;;;17.12
63009;BMP280;49099;28.428;-16.488;2023-02-08T00:52:20;98865.56;;;17.11
63009;BMP280;49099;28.428;-16.488;2023-02-08T00:54:47;98871.72;;;17.08
63009;BMP280;49099;28.428;-16.488;2023-02-08T00:57:14;98864.97;;;17.07
63009;BMP280;49099;28.428;-16.488;2023-02-08T00:59:42;98861.41;;;17.01
63009;BMP280;49099;28.428;-16.488;2023-02-08T01:02:09;98870.25;;;16.98
63009;BMP280;49099;28.428;-16.488;2023-02-08T01:04:37;98873.81;;;16.95
63009;BMP280;49099;28.428;-16.488;2023-02-08T01:07:05;98875.84;;;16.91
63009;BMP280;49099;28.428;-16.488;2023-02-08T01:09:33;98865.84;;;16.86
63009;BMP280;49099;28.428;-16.488;2023-02-08T01:12:00;98868.16;;;16.84
63009;BMP280;49099;28.428;-16.488;2023-02-08T01:14:27;98871.44;;;16.79
63009;BMP280;49099;28.428;-16.488;2023-02-08T01:16:54;98869.19;;;16.78
63009;BMP280;49099;28.428;-16.488;2023-02-08T01:19:21;98866.25;;;16.76
63009;BMP280;49099;28.428;-16.488;2023-02-08T01:21:49;98861.84;;;16.73
63009;BMP280;49099;28.428;-16.488;2023-02-08T01:24:16;98852.25;;;16.66
63009;BMP280;49099;28.428;-16.488;2023-02-08T01:26:44;98856.97;;;16.62
63009;BMP280;49099;28.428;-16.488;2023-02-08T01:29:11;98847.66;;;16.57
63009;BMP280;49099;28.428;-16.488;2023-02-08T01:31:39;98851.06;;;16.58
63009;BMP280;49099;28.428;-16.488;2023-02-08T01:34:07;98853.25;;;16.59
63009;BMP280;49099;28.428;-16.488;2023-02-08T01:36:36;98851.66;;;16.62
63009;BMP280;49099;28.428;-16.488;2023-02-08T01:39:04;98854.59;;;16.64
63009;BMP280;49099;28.428;-16.488;2023-02-08T01:41:36;98848.44;;;16.67
63009;BMP280;49099;28.428;-16.488;2023-02-08T01:46:44;98859.03;;;16.67
63009;BMP280;49099;28.428;-16.488;2023-02-08T01:51:50;98854.91;;;16.66
63009;BMP280;49099;28.428;-16.488;2023-02-08T01:54:19;98857.56;;;16.66
63009;BMP280;49099;28.428;-16.488;2023-02-08T01:56:48;98857.81;;;16.68
63009;BMP280;49099;28.428;-16.488;2023-02-08T01:59:24;98856.41;;;16.67
63009;BMP280;49099;28.428;-16.488;2023-02-08T02:01:55;98847.22;;;16.68
63009;BMP280;49099;28.428;-16.488;2023-02-08T02:04:24;98855.50;;;16.70
63009;BMP280;49099;28.428;-16.488;2023-02-08T02:06:54;98851.66;;;16.71
63009;BMP280;49099;28.428;-16.488;2023-02-08T02:09:32;98853.16;;;16.72
63009;BMP280;49099;28.428;-16.488;2023-02-08T02:12:02;98857.25;;;16.73
63009;BMP280;49099;28.428;-16.488;2023-02-08T02:14:30;98851.22;;;16.73
63009;BMP280;49099;28.428;-16.488;2023-02-08T02:16:59;98852.59;;;16.77
63009;BMP280;49099;28.428;-16.488;2023-02-08T02:19:36;98852.41;;;16.81
63009;BMP280;49099;28.428;-16.488;2023-02-08T02:39:13;98837.78;;;16.40
63009;BMP280;49099;28.428;-16.488;2023-02-08T02:41:48;98839.38;;;16.37
63009;BMP280;49099;28.428;-16.488;2023-02-08T02:50:22;98844.22;;;16.39
63009;BMP280;49099;28.428;-16.488;2023-02-08T02:55:25;98833.50;;;16.42
63009;BMP280;49099;28.428;-16.488;2023-02-08T02:57:54;98830.41;;;16.44
63009;BMP280;49099;28.428;-16.488;2023-02-08T03:00:25;98832.47;;;16.49
63009;BMP280;49099;28.428;-16.488;2023-02-08T03:02:52;98834.25;;;16.52
63009;BMP280;49099;28.428;-16.488;2023-02-08T03:05:21;98833.94;;;16.50
63009;BMP280;49099;28.428;-16.488;2023-02-08T03:08:23;98838.97;;;16.57
63009;BMP280;49099;28.428;-16.488;2023-02-08T03:17:13;98831.47;;;16.46
63009;BMP280;49099;28.428;-16.488;2023-02-08T03:20:06;98839.25;;;16.41
63009;BMP280;49099;28.428;-16.488;2023-02-08T03:25:19;98832.78;;;16.42
63009;BMP280;49099;28.428;-16.488;2023-02-08T03:28:06;98830.41;;;16.44
63009;BMP280;49099;28.428;-16.488;2023-02-08T03:30:48;98833.94;;;16.50
63009;BMP280;49099;28.428;-16.488;2023-02-08T03:33:45;98839.13;;;16.53
63009;BMP280;49099;28.428;-16.488;2023-02-08T03:36:19;98830.13;;;16.51
63009;BMP280;49099;28.428;-16.488;2023-02-08T03:38:49;98827.94;;;16.49
63009;BMP280;49099;28.428;-16.488;2023-02-08T03:41:22;98833.22;;;16.49
63009;BMP280;49099;28.428;-16.488;2023-02-08T03:44:04;98826.75;;;16.50
63009;BMP280;49099;28.428;-16.488;2023-02-08T03:46:36;98829.81;;;16.49
63009;BMP280;49099;28.428;-16.488;2023-02-08T03:49:13;98830.41;;;16.44
63009;BMP280;49099;28.428;-16.488;2023-02-08T03:51:42;98833.06;;;16.44
63009;BMP280;49099;28.428;-16.488;2023-02-08T03:54:22;98828.19;;;16.42
63009;BMP280;49099;28.428;-16.488;2023-02-08T03:57:04;98831.28;;;16.41
63009;BMP280;49099;28.428;-16.488;2023-02-08T03:59:36;98829.06;;;16.39
63009;BMP280;49099;28.428;-16.488;2023-02-08T04:02:06;98830.56;;;16.40
63009;BMP280;49099;28.428;-16.488;2023-02-08T04:04:38;98837.34;;;16.41
63009;BMP280;49099;28.428;-16.488;2023-02-08T04:07:07;98837.19;;;16.45
63009;BMP280;49099;28.428;-16.488;2023-02-08T04:09:34;98835.13;;;16.49
63009;BMP280;49099;28.428;-16.488;2023-02-08T04:12:04;98830.56;;;16.49
63009;BMP280;49099;28.428;-16.488;2023-02-08T04:14:31;98830.13;;;16.51
63009;BMP280;49099;28.428;-16.488;2023-02-08T04:16:58;98831.03;;;16.57
63009;BMP280;49099;28.428;-16.488;2023-02-08T04:19:25;98834.28;;;16.61
63009;BMP280;49099;28.428;-16.488;2023-02-08T04:21:53;98837.34;;;16.69
63009;BMP280;49099;28.428;-16.488;2023-02-08T04:24:20;98841.34;;;16.73
63009;BMP280;49099;28.428;-16.488;2023-02-08T04:26:47;98835.19;;;16.76
63009;BMP280;49099;28.428;-16.488;2023-02-08T04:29:14;98838.97;;;16.75
63009;BMP280;49099;28.428;-16.488;2023-02-08T04:31:41;98836.19;;;16.70
63009;BMP280;49099;28.428;-16.488;2023-02-08T04:34:08;98834.28;;;16.61
63009;BMP280;49099;28.428;-16.488;2023-02-08T04:36:35;98825.41;;;16.55
63009;BMP280;49099;28.428;-16.488;2023-02-08T04:39:02;98825.09;;;16.53
63009;BMP280;49099;28.428;-16.488;2023-02-08T04:41:30;98818.94;;;16.47
63009;BMP280;49099;28.428;-16.488;2023-02-08T04:43:57;98813.47;;;16.41
63009;BMP280;49099;28.428;-16.488;2023-02-08T04:46:24;98815.66;;;16.34
63009;BMP280;49099;28.428;-16.488;2023-02-08T04:48:51;98806.22;;;16.24
63009;BMP280;49099;28.428;-16.488;2023-02-08T04:51:18;98806.34;;;16.20
63009;BMP280;49099;28.428;-16.488;2023-02-08T04:53:45;98811.78;;;16.17
63009;BMP280;49099;28.428;-16.488;2023-02-08T04:56:12;98804.25;;;16.15
63009;BMP280;49099;28.428;-16.488;2023-02-08T04:58:40;98799.09;;;16.12
63009;BMP280;49099;28.428;-16.488;2023-02-08T05:01:07;98800.72;;;16.09
63009;BMP280;49099;28.428;-16.488;2023-02-08T05:03:36;98801.56;;;16.06
63009;BMP280;49099;28.428;-16.488;2023-02-08T05:06:03;98802.31;;;16.07
63009;BMP280;49099;28.428;-16.488;2023-02-08T05:08:31;98804.13;;;16.10
63009;BMP280;49099;28.428;-16.488;2023-02-08T05:10:58;98806.03;;;16.09
63009;BMP280;49099;28.428;-16.488;2023-02-08T05:13:25;98804.97;;;16.07
63009;BMP280;49099;28.428;-16.488;2023-02-08T05:15:52;98802.31;;;16.07
63009;BMP280;49099;28.428;-16.488;2023-02-08T05:18:19;98797.75;;;16.07
63009;BMP280;49099;28.428;-16.488;2023-02-08T05:20:56;98810.84;;;16.11
63009;BMP280;49099;28.428;-16.488;2023-02-08T05:23:24;98803.97;;;16.13
63009;BMP280;49099;28.428;-16.488;2023-02-08T05:25:52;98809.44;;;16.19
63009;BMP280;49099;28.428;-16.488;2023-02-08T05:28:19;98811.06;;;16.25
63009;BMP280;49099;28.428;-16.488;2023-02-08T05:30:46;98811.34;;;16.27
63009;BMP280;49099;28.428;-16.488;2023-02-08T05:33:14;98811.25;;;16.31
63009;BMP280;49099;28.428;-16.488;2023-02-08T05:35:43;98824.19;;;16.29
63009;BMP280;49099;28.428;-16.488;2023-02-08T05:38:10;98822.25;;;16.29
63009;BMP280;49099;28.428;-16.488;2023-02-08T05:40:37;98825.53;;;16.33
63009;BMP280;49099;28.428;-16.488;2023-02-08T05:43:05;98820.94;;;16.34
63009;BMP280;49099;28.428;-16.488;2023-02-08T05:45:33;98827.75;;;16.35
63009;BMP280;49099;28.428;-16.488;2023-02-08T05:48:00;98833.63;;;16.39
63009;BMP280;49099;28.428;-16.488;2023-02-08T05:50:27;98828.91;;;16.43
63009;BMP280;49099;28.428;-16.488;2023-02-08T05:52:54;98825.69;;;16.48
63009;BMP280;49099;28.428;-16.488;2023-02-08T05:55:21;98825.41;;;16.55
63009;BMP280;49099;28.428;-16.488;2023-02-08T05:57:48;98833.09;;;16.62
63009;BMP280;49099;28.428;-16.488;2023-02-08T06:00:16;98840.19;;;16.65
63009;BMP280;49099;28.428;-16.488;2023-02-08T06:02:43;98835.19;;;16.67
63009;BMP280;49099;28.428;-16.488;2023-02-08T06:05:10;98836.59;;;16.68
63009;BMP280;49099;28.428;-16.488;2023-02-08T06:07:37;98843.41;;;16.69
63009;BMP280;49099;28.428;-16.488;2023-02-08T06:10:05;98845.22;;;16.72
63009;BMP280;49099;28.428;-16.488;2023-02-08T06:12:32;98843.84;;;16.68
63009;BMP280;49099;28.428;-16.488;2023-02-08T06:14:59;98846.22;;;16.66
63009;BMP280;49099;28.428;-16.488;2023-02-08T06:17:27;98846.63;;;16.55
63009;BMP280;49099;28.428;-16.488;2023-02-08T06:19:54;98849.13;;;16.49
63009;BMP280;49099;28.428;-16.488;2023-02-08T06:22:21;98849.13;;;16.49
63009;BMP280;49099;28.428;-16.488;2023-02-08T06:24:48;98848.97;;;16.44
63009;BMP280;49099;28.428;-16.488;2023-02-08T06:27:15;98851.78;;;16.40
63009;BMP280;49099;28.428;-16.488;2023-02-08T06:29:42;98858.06;;;16.34
63009;BMP280;49099;28.428;-16.488;2023-02-08T06:32:09;98857.72;;;16.23
63009;BMP280;49099;28.428;-16.488;2023-02-08T06:34:37;98859.63;;;16.22
63009;BMP280;49099;28.428;-16.488;2023-02-08T06:37:05;98860.38;;;16.23
63009;BMP280;49099;28.428;-16.488;2023-02-08T06:39:32;98860.13;;;16.30
63009;BMP280;49099;28.428;-16.488;2023-02-08T06:41:59;98868.06;;;16.30
63009;BMP280;49099;28.428;-16.488;2023-02-08T06:44:26;98867.31;;;16.29
63009;BMP280;49099;28.428;-16.488;2023-02-08T06:46:53;98866.75;;;16.34
63009;BMP280;49099;28.428;-16.488;2023-02-08T06:49:20;98873.84;;;16.37
63009;BMP280;49099;28.428;-16.488;2023-02-08T06:51:48;98866.31;;;16.36
63009;BMP280;49099;28.428;-16.488;2023-02-08T06:54:15;98874.56;;;16.29
63009;BMP280;49099;28.428;-16.488;2023-02-08T06:56:42;98871.47;;;16.30
63009;BMP280;49099;28.428;-16.488;2023-02-08T06:59:10;98869.41;;;16.34
63009;BMP280;49099;28.428;-16.488;2023-02-08T07:01:37;98868.66;;;16.34
63009;BMP280;49099;28.428;-16.488;2023-02-08T07:04:04;98878.69;;;16.30
63009;BMP280;49099;28.428;-16.488;2023-02-08T07:06:32;98871.56;;;16.27
63009;BMP280;49099;28.428;-16.488;2023-02-08T07:08:59;98879.25;;;16.25
63009;BMP280;49099;28.428;-16.488;2023-02-08T07:11:28;98876.13;;;16.17
63009;BMP280;49099;28.428;-16.488;2023-02-08T07:13:55;98880.56;;;16.20
63009;BMP280;49099;28.428;-16.488;2023-02-08T07:16:22;98876.28;;;16.23
63009;BMP280;49099;28.428;-16.488;2023-02-08T07:18:49;98875.25;;;16.20
63009;BMP280;49099;28.428;-16.488;2023-02-08T07:21:17;98878.34;;;16.19
63009;BMP280;49099;28.428;-16.488;2023-02-08T07:23:44;98884.50;;;16.16
63009;BMP280;49099;28.428;-16.488;2023-02-08T07:26:11;98885.69;;;16.15
63009;BMP280;49099;28.428;-16.488;2023-02-08T07:28:40;98881.56;;;16.14
63009;BMP280;49099;28.428;-16.488;2023-02-08T07:31:09;98890.53;;;16.16
63009;BMP280;49099;28.428;-16.488;2023-02-08T07:33:37;98893.66;;;16.15
63009;BMP280;49099;28.428;-16.488;2023-02-08T07:36:05;98896.59;;;16.17
63009;BMP280;49099;28.428;-16.488;2023-02-08T07:38:33;98899.53;;;16.19
63009;BMP280;49099;28.428;-16.488;2023-02-08T07:41:05;98903.97;;;16.22
63009;BMP280;49099;28.428;-16.488;2023-02-08T07:43:34;98900.72;;;16.27
63009;BMP280;49099;28.428;-16.488;2023-02-08T07:46:10;98908.13;;;16.32
63009;BMP280;49099;28.428;-16.488;2023-02-08T07:48:37;98907.72;;;16.33
63009;BMP280;49099;28.428;-16.488;2023-02-08T07:51:06;98905.66;;;16.37
63009;BMP280;49099;28.428;-16.488;2023-02-08T07:53:34;98899.59;;;16.37
63009;BMP280;49099;28.428;-16.488;2023-02-08T07:56:01;98899.59;;;16.37
63009;BMP280;49099;28.428;-16.488;2023-02-08T07:58:28;98905.53;;;16.41
63009;BMP280;49099;28.428;-16.488;2023-02-08T08:00:55;98895.19;;;16.43
63009;BMP280;49099;28.428;-16.488;2023-02-08T08:03:22;98911.09;;;16.43
63009;BMP280;49099;28.428;-16.488;2023-02-08T08:05:50;98898.59;;;16.43
63009;BMP280;49099;28.428;-16.488;2023-02-08T08:08:20;98903.16;;;16.43
63009;BMP280;49099;28.428;-16.488;2023-02-08T08:10:47;98908.78;;;16.45
63009;BMP280;49099;28.428;-16.488;2023-02-08T08:13:15;98898.34;;;16.50
63009;BMP280;49099;28.428;-16.488;2023-02-08T08:15:42;98902.63;;;16.57
63009;BMP280;49099;28.428;-16.488;2023-02-08T08:18:09;98904.69;;;16.62
63009;BMP280;49099;28.428;-16.488;2023-02-08T08:20:36;98914.75;;;16.67
63009;BMP280;49099;28.428;-16.488;2023-02-08T08:23:07;98907.81;;;16.70
63009;BMP280;49099;28.428;-16.488;2023-02-08T08:25:37;98918.72;;;16.72
63009;BMP280;49099;28.428;-16.488;2023-02-08T08:28:04;98919.47;;;16.72
63009;BMP280;49099;28.428;-16.488;2023-02-08T08:30:32;98921.97;;;16.76
63009;BMP280;49099;28.428;-16.488;2023-02-08T08:32:59;98927.28;;;16.76
63009;BMP280;49099;28.428;-16.488;2023-02-08T08:35:26;98923.75;;;16.79
63009;BMP280;49099;28.428;-16.488;2023-02-08T08:37:53;98931.84;;;16.84
63009;BMP280;49099;28.428;-16.488;2023-02-08T08:40:20;98929.81;;;16.88
63009;BMP280;49099;28.428;-16.488;2023-02-08T08:42:50;98939.09;;;16.93
63009;BMP280;49099;28.428;-16.488;2023-02-08T08:45:17;98945.75;;;16.97
63009;BMP280;49099;28.428;-16.488;2023-02-08T08:47:45;98945.47;;;17.04
63009;BMP280;49099;28.428;-16.488;2023-02-08T08:50:12;98950.50;;;17.11
63009;BMP280;49099;28.428;-16.488;2023-02-08T08:52:39;98952.53;;;17.16
63009;BMP280;49099;28.428;-16.488;2023-02-08T08:55:08;98953.16;;;17.20
63009;BMP280;49099;28.428;-16.488;2023-02-08T08:57:35;98965.84;;;17.25
63009;BMP280;49099;28.428;-16.488;2023-02-08T09:00:03;98963.78;;;17.29
63009;BMP280;49099;28.428;-16.488;2023-02-08T09:02:30;98959.34;;;17.35
63009;BMP280;49099;28.428;-16.488;2023-02-08T09:04:57;98969.06;;;17.38
63009;BMP280;49099;28.428;-16.488;2023-02-08T09:07:26;98956.84;;;17.41
63009;BMP280;49099;28.428;-16.488;2023-02-08T09:09:53;98959.63;;;17.37
63009;BMP280;49099;28.428;-16.488;2023-02-08T09:12:20;98959.78;;;17.34
63009;BMP280;49099;28.428;-16.488;2023-02-08T09:14:47;98953.16;;;17.29
63009;BMP280;49099;28.428;-16.488;2023-02-08T09:17:14;98953.44;;;17.31
63009;BMP280;49099;28.428;-16.488;2023-02-08T09:19:41;98962.84;;;17.32
63009;BMP280;49099;28.428;-16.488;2023-02-08T09:22:08;98964.66;;;17.35
63009;BMP280;49099;28.428;-16.488;2023-02-08T09:24:35;98966.16;;;17.36
63009;BMP280;49099;28.428;-16.488;2023-02-08T09:27:03;98958.47;;;17.38
63009;BMP280;49099;28.428;-16.488;2023-02-08T09:29:30;98966.28;;;17.42
63009;BMP280;49099;28.428;-16.488;2023-02-08T09:31:59;98970.69;;;17.45
63009;BMP280;49099;28.428;-16.488;2023-02-08T09:34:26;98970.53;;;17.48
63009;BMP280;49099;28.428;-16.488;2023-02-08T09:36:53;98981.31;;;17.54
63009;BMP280;49099;28.428;-16.488;2023-02-08T09:39:23;98984.13;;;17.59
63009;BMP280;49099;28.428;-16.488;2023-02-08T09:47:05;98987.06;;;17.61
63009;BMP280;49099;28.428;-16.488;2023-02-08T09:49:58;98981.75;;;17.61
63009;BMP280;49099;28.428;-16.488;2023-02-08T09:52:54;98991.66;;;17.61
63009;BMP280;49099;28.428;-16.488;2023-02-08T09:57:52;98995.03;;;17.61
63009;BMP280;49099;28.428;-16.488;2023-02-08T10:00:34;99003.59;;;17.65
63009;BMP280;49099;28.428;-16.488;2023-02-08T10:03:02;98998.88;;;17.69
63009;BMP280;49099;28.428;-16.488;2023-02-08T10:05:30;99000.06;;;17.77
63009;BMP280;49099;28.428;-16.488;2023-02-08T10:07:58;99002.69;;;17.86
63009;BMP280;49099;28.428;-16.488;2023-02-08T10:10:38;99013.03;;;17.93
63009;BMP280;49099;28.428;-16.488;2023-02-08T10:13:21;99011.22;;;17.99
63009;BMP280;49099;28.428;-16.488;2023-02-08T10:16:10;99015.69;;;18.02
63009;BMP280;49099;28.428;-16.488;2023-02-08T10:18:54;99021.56;;;18.06
63009;BMP280;49099;28.428;-16.488;2023-02-08T10:21:51;99026.13;;;18.06
63009;BMP280;49099;28.428;-16.488;2023-02-08T10:27:16;99024.22;;;18.06
63009;BMP280;49099;28.428;-16.488;2023-02-08T10:32:48;99033.97;;;18.00
63009;BMP280;49099;28.428;-16.488;2023-02-08T10:35:25;99035.47;;;17.92
63009;BMP280;49099;28.428;-16.488;2023-02-08T10:37:54;99035.47;;;17.83
63009;BMP280;49099;28.428;-16.488;2023-02-08T10:40:29;99041.97;;;17.82
63009;BMP280;49099;28.428;-16.488;2023-02-08T10:45:34;99042.00;;;17.73
63009;BMP280;49099;28.428;-16.488;2023-02-08T10:48:05;99044.94;;;17.75
63009;BMP280;49099;28.428;-16.488;2023-02-08T10:50:38;99048.00;;;17.83
63009;BMP280;49099;28.428;-16.488;2023-02-08T10:53:13;99053.75;;;17.90
63009;BMP280;49099;28.428;-16.488;2023-02-08T10:55:43;99055.00;;;17.89
63009;BMP280;49099;28.428;-16.488;2023-02-08T10:58:16;99067.94;;;17.87
63009;BMP280;49099;28.428;-16.488;2023-02-08T11:00:44;99065.13;;;17.91
63009;BMP280;49099;28.428;-16.488;2023-02-08T11:03:23;99066.19;;;18.02
63009;BMP280;49099;28.428;-16.488;2023-02-08T11:05:51;99065.88;;;18.09
63009;BMP280;49099;28.428;-16.488;2023-02-08T11:08:23;99060.28;;;18.07
63009;BMP280;49099;28.428;-16.488;2023-02-08T11:13:41;99062.72;;;18.29
63009;BMP280;49099;28.428;-16.488;2023-02-08T11:16:20;99060.50;;;18.27
63009;BMP280;49099;28.428;-16.488;2023-02-08T11:18:51;99056.66;;;18.38
63009;BMP280;49099;28.428;-16.488;2023-02-08T11:21:37;99057.97;;;18.42
63009;BMP280;49099;28.428;-16.488;2023-02-08T11:26:41;99056.91;;;18.49
63009;BMP280;49099;28.428;-16.488;2023-02-08T11:29:18;99055.44;;;18.48
63009;BMP280;49099;28.428;-16.488;2023-02-08T11:34:27;99048.06;;;18.43
63009;BMP280;49099;28.428;-16.488;2023-02-08T11:36:56;99048.06;;;18.43
63009;BMP280;49099;28.428;-16.488;2023-02-08T11:39:28;99042.72;;;18.43
63009;BMP280;49099;28.428;-16.488;2023-02-08T11:41:59;99037.09;;;18.50
63009;BMP280;49099;28.428;-16.488;2023-02-08T11:44:35;99032.97;;;18.49
63009;BMP280;49099;28.428;-16.488;2023-02-08T11:47:05;99043.94;;;18.42
63009;BMP280;49099;28.428;-16.488;2023-02-08T11:49:38;99041.25;;;18.42
63009;BMP280;49099;28.428;-16.488;2023-02-08T11:52:33;99036.06;;;18.47
63009;BMP280;49099;28.428;-16.488;2023-02-08T12:00:39;99026.63;;;18.46
63009;BMP280;49099;28.428;-16.488;2023-02-08T12:03:13;99021.91;;;18.50
63009;BMP280;49099;28.428;-16.488;2023-02-08T12:08:57;99021.41;;;18.52
63009;BMP280;49099;28.428;-16.488;2023-02-08T12:11:55;99012.59;;;18.46
63009;BMP280;49099;28.428;-16.488;2023-02-08T12:17:56;99015.19;;;18.55
63009;BMP280;49099;28.428;-16.488;2023-02-08T12:26:49;99011.97;;;18.51
63009;BMP280;49099;28.428;-16.488;2023-02-08T12:37:01;99015.81;;;18.82
63009;BMP280;49099;28.428;-16.488;2023-02-08T12:46:14;98998.22;;;19.08
63009;BMP280;49099;28.428;-16.488;2023-02-08T12:54:31;98995.50;;;19.32
63009;BMP280;49099;28.428;-16.488;2023-02-08T12:57:00;98993.72;;;19.38
63009;BMP280;49099;28.428;-16.488;2023-02-08T13:05:02;98971.00;;;19.57
63009;BMP280;49099;28.428;-16.488;2023-02-08T13:07:41;98967.34;;;19.69
63009;BMP280;49099;28.428;-16.488;2023-02-08T13:10:28;98964.25;;;19.70
63009;BMP280;49099;28.428;-16.488;2023-02-08T13:13:19;98964.06;;;19.74
63009;BMP280;49099;28.428;-16.488;2023-02-08T13:15:56;98965.72;;;19.86
63009;BMP280;49099;28.428;-16.488;2023-02-08T13:18:28;98964.13;;;19.94
63009;BMP280;49099;28.428;-16.488;2023-02-08T13:21:03;98954.28;;;20.00
63009;BMP280;49099;28.428;-16.488;2023-02-08T13:23:35;98939.34;;;20.08
63009;BMP280;49099;28.428;-16.488;2023-02-08T13:26:21;98933.66;;;20.15
63009;BMP280;49099;28.428;-16.488;2023-02-08T13:28:57;98941.13;;;20.11
63009;BMP280;49099;28.428;-16.488;2023-02-08T13:31:49;98929.59;;;20.20
63009;BMP280;49099;28.428;-16.488;2023-02-08T13:37:31;98919.03;;;20.45
63009;BMP280;49099;28.428;-16.488;2023-02-08T13:45:06;98912.78;;;20.48
63009;BMP280;49099;28.428;-16.488;2023-02-08T13:47:47;98893.97;;;20.57
63009;BMP280;49099;28.428;-16.488;2023-02-08T13:50:45;98901.69;;;20.55
63009;BMP280;49099;28.428;-16.488;2023-02-08T13:53:14;98889.19;;;20.47
63009;BMP280;49099;28.428;-16.488;2023-02-08T13:55:58;98887.53;;;20.49
63009;BMP280;49099;28.428;-16.488;2023-02-08T14:12:00;98864.41;;;20.41
63009;BMP280;49099;28.428;-16.488;2023-02-08T14:14:31;98866.88;;;20.24
63009;BMP280;49099;28.428;-16.488;2023-02-08T14:17:28;98860.72;;;20.38
63009;BMP280;49099;28.428;-16.488;2023-02-08T14:20:06;98856.25;;;20.50
63009;BMP280;49099;28.428;-16.488;2023-02-08T14:22:38;98854.38;;;20.56
63009;BMP280;49099;28.428;-16.488;2023-02-08T14:25:17;98855.91;;;20.62
63009;BMP280;49099;28.428;-16.488;2023-02-08T14:28:00;98848.56;;;20.77
63009;BMP280;49099;28.428;-16.488;2023-02-08T14:30:31;98857.91;;;20.47
63009;BMP280;49099;28.428;-16.488;2023-02-08T14:35:29;98843.22;;;20.17
63009;BMP280;49099;28.428;-16.488;2023-02-08T14:41:01;98846.94;;;20.05
63009;BMP280;49099;28.428;-16.488;2023-02-08T14:43:37;98839.63;;;20.00
63009;BMP280;49099;28.428;-16.488;2023-02-08T14:49:13;98822.44;;;20.01
63009;BMP280;49099;28.428;-16.488;2023-02-08T14:51:47;98828.00;;;19.83
63009;BMP280;49099;28.428;-16.488;2023-02-08T14:54:24;98820.28;;;19.85
63009;BMP280;49099;28.428;-16.488;2023-02-08T14:57:00;98812.97;;;20.00
63009;BMP280;49099;28.428;-16.488;2023-02-08T14:59:30;98806.53;;;20.12
63009;BMP280;49099;28.428;-16.488;2023-02-08T15:02:01;98806.16;;;19.99
63009;BMP280;49099;28.428;-16.488;2023-02-08T15:04:29;98806.41;;;20.01
63009;BMP280;49099;28.428;-16.488;2023-02-08T15:09:43;98810.25;;;20.35
63009;BMP280;49099;28.428;-16.488;2023-02-08T15:12:31;98815.72;;;20.26
63009;BMP280;49099;28.428;-16.488;2023-02-08T15:15:01;98798.97;;;20.25
63009;BMP280;49099;28.428;-16.488;2023-02-08T15:17:45;98799.63;;;20.40
63009;BMP280;49099;28.428;-16.488;2023-02-08T15:20:22;98801.56;;;20.40
63009;BMP280;49099;28.428;-16.488;2023-02-08T15:22:59;98798.16;;;20.39
63009;BMP280;49099;28.428;-16.488;2023-02-08T15:25:31;98809.56;;;20.40
63009;BMP280;49099;28.428;-16.488;2023-02-08T15:28:01;98801.97;;;20.33
63009;BMP280;49099;28.428;-16.488;2023-02-08T15:30:37;98802.44;;;20.31
63009;BMP280;49099;28.428;-16.488;2023-02-08T15:33:12;98809.78;;;20.36
63009;BMP280;49099;28.428;-16.488;2023-02-08T15:35:42;98802.97;;;20.35
63009;BMP280;49099;28.428;-16.488;2023-02-08T15:38:20;98806.88;;;20.40
63009;BMP280;49099;28.428;-16.488;2023-02-08T15:41:01;98810.91;;;20.30
63009;BMP280;49099;28.428;-16.488;2023-02-08T15:43:29;98801.38;;;20.23
63009;BMP280;49099;28.428;-16.488;2023-02-08T15:45:59;98809.78;;;20.36
63009;BMP280;49099;28.428;-16.488;2023-02-08T15:48:28;98803.50;;;20.39
63009;BMP280;49099;28.428;-16.488;2023-02-08T15:50:56;98807.63;;;20.40
63009;BMP280;49099;28.428;-16.488;2023-02-08T15:53:24;98806.81;;;20.54
63009;BMP280;49099;28.428;-16.488;2023-02-08T15:55:59;98802.94;;;20.55
63009;BMP280;49099;28.428;-16.488;2023-02-08T15:58:39;98801.41;;;20.74
63009;BMP280;49099;28.428;-16.488;2023-02-08T16:01:17;98798.50;;;20.72
63009;BMP280;49099;28.428;-16.488;2023-02-08T16:03:50;98793.59;;;20.65
63009;BMP280;49099;28.428;-16.488;2023-02-08T16:06:30;98802.06;;;20.64
63009;BMP280;49099;28.428;-16.488;2023-02-08T16:09:01;98793.13;;;20.67
63009;BMP280;49099;28.428;-16.488;2023-02-08T16:11:30;98793.53;;;20.60
63009;BMP280;49099;28.428;-16.488;2023-02-08T16:14:00;98797.28;;;20.48
63009;BMP280;49099;28.428;-16.488;2023-02-08T16:19:16;98782.69;;;20.43
63009;BMP280;49099;28.428;-16.488;2023-02-08T16:21:45;98770.94;;;20.35
63009;BMP280;49099;28.428;-16.488;2023-02-08T16:31:59;98773.13;;;20.57
63009;BMP280;49099;28.428;-16.488;2023-02-08T16:34:31;98763.44;;;20.59
63009;BMP280;49099;28.428;-16.488;2023-02-08T16:37:00;98768.03;;;20.59